Time;durP1;ratioP1;P1;durP2;ratioP2;P2;SDS_P1;SDS_P2;PMS_P1;PMS_P2;Temp;Humidity;BMP_temperature;BMP_pressure;BME280_temperature;BME280_humidity;BME280_pressure;Samples;Min_cycle;Max_cycle;Signal;HPM_P1;HPM_P2
2022/03/08 00:01:28;;;;;;;;;;;153.60;1587.20;;;;;;5095737;28;20329;-61
2022/03/08 00:03:54;;;;;;;;;;;153.60;1587.20;;;;;;5095271;28;19915;-61
2022/03/08 00:06:20;;;;;;;;;;;153.60;1587.20;;;;;;5094206;28;20381;-62
2022/03/08 00:08:45;;;;;;;;;;;128.90;1612.80;;;;;;5095463;28;19928;-62
2022/03/08 00:11:11;;;;;;;;;;;154.10;1894.40;;;;;;5096136;28;19916;-64
2022/03/08 00:13:37;;;;;;;;;;;179.20;1740.80;;;;;;5095455;28;20273;-62
2022/03/08 00:16:02;;;;;;;;;;;179.20;1612.80;;;;;;5095753;28;19914;-61
2022/03/08 00:18:28;;;;;;;;;;;154.40;1561.60;;;;;;5095785;28;20262;-61
2022/03/08 00:20:54;;;;;;;;;;;154.20;1587.20;;;;;;5095860;28;19912;-62
2022/03/08 00:23:19;;;;;;;;;;;154.20;1536.00;;;;;;5095522;28;20369;-61
2022/03/08 00:25:45;;;;;;;;;;;153.90;1536.00;;;;;;5095924;28;20362;-61
2022/03/08 00:28:10;;;;;;;;;;;153.90;1536.00;;;;;;5094960;28;19999;-61
2022/03/08 00:30:36;;;;;;;;;;;153.80;1536.00;;;;;;5095716;28;19912;-61
2022/03/08 00:33:02;;;;;;;;;;;153.70;1587.20;;;;;;5094306;28;19970;-61
2022/03/08 00:35:28;;;;;;;;;;;153.80;1510.40;;;;;;5095379;28;19915;-61
2022/03/08 00:37:55;;;;;;;;;;;153.60;1561.60;;;;;;5095206;28;19916;-61
2022/03/08 00:40:21;;;;;;;;;;;153.70;1536.00;;;;;;5095573;28;19948;-61
2022/03/08 00:42:47;;;;;;;;;;;153.60;1561.60;;;;;;5093886;28;20007;-61
2022/03/08 00:45:13;;;;;;;;;;;153.60;1561.60;;;;;;5094989;28;20361;-61
2022/03/08 00:47:39;;;;;;;;;;;153.60;1536.00;;;;;;5095113;28;19908;-61
2022/03/08 00:50:06;;;;;;;;;;;128.90;1561.60;;;;;;5095263;28;19908;-61
2022/03/08 00:52:32;;;;;;;;;;;153.60;1561.60;;;;;;5095268;28;19930;-61
2022/03/08 00:54:58;;;;;;;;;;;153.60;1536.00;;;;;;5095205;28;20350;-61
2022/03/08 00:57:24;;;;;;;;;;;153.60;1561.60;;;;;;5095022;28;19920;-61
2022/03/08 00:59:49;;;;;;;;;;;153.60;1536.00;;;;;;5095270;28;19908;-61
2022/03/08 01:02:15;;;;;;;;;;;153.60;1561.60;;;;;;5095255;28;19943;-61
2022/03/08 01:04:40;;;;;;;;;;;128.90;1536.00;;;;;;5094908;28;19916;-60
2022/03/08 01:07:07;;;;;;;;;;;128.80;1561.60;;;;;;5094766;28;20314;-61
2022/03/08 01:09:33;;;;;;;;;;;128.80;1561.60;;;;;;5094925;28;19922;-61
2022/03/08 01:11:58;;;;;;;;;;;128.80;1561.60;;;;;;5094954;28;19919;-60
2022/03/08 01:14:24;;;;;;;;;;;128.80;1561.60;;;;;;5094895;28;19912;-62
2022/03/08 01:16:50;;;;;;;;;;;128.80;1561.60;;;;;;5094745;28;19916;-61
2022/03/08 01:19:15;;;;;;;;;;;128.80;1561.60;;;;;;5094956;28;19944;-61
2022/03/08 01:21:41;;;;;;;;;;;128.80;1561.60;;;;;;5094791;28;19908;-61
2022/03/08 01:24:07;;;;;;;;;;;128.80;1561.60;;;;;;5093355;28;19953;-60
2022/03/08 01:26:33;;;;;;;;;;;128.80;1587.20;;;;;;5094665;28;19908;-61
2022/03/08 01:28:58;;;;;;;;;;;128.70;1561.60;;;;;;5094734;28;20397;-61
2022/03/08 01:31:24;;;;;;;;;;;128.70;1587.20;;;;;;5094655;28;19912;-61
2022/03/08 01:33:50;;;;;;;;;;;128.80;1587.20;;;;;;5094630;28;20255;-61
2022/03/08 01:36:15;;;;;;;;;;;128.70;1587.20;;;;;;5093953;28;20365;-61
2022/03/08 01:38:41;;;;;;;;;;;128.70;1612.80;;;;;;5094534;28;20301;-61
2022/03/08 01:41:07;;;;;;;;;;;128.70;1561.60;;;;;;5094584;28;20369;-61
2022/03/08 01:43:33;;;;;;;;;;;128.70;1587.20;;;;;;5094255;28;19915;-61
2022/03/08 01:45:59;;;;;;;;;;;128.60;1587.20;;;;;;5093043;28;19908;-61
2022/03/08 01:48:24;;;;;;;;;;;128.60;1587.20;;;;;;5092094;28;19912;-62
2022/03/08 01:50:50;;;;;;;;;;;128.60;1612.80;;;;;;5094464;28;19915;-61
2022/03/08 01:53:16;;;;;;;;;;;128.60;1587.20;;;;;;5094393;28;19908;-61
2022/03/08 01:55:41;;;;;;;;;;;128.60;1612.80;;;;;;5092714;28;19957;-61
2022/03/08 01:58:07;;;;;;;;;;;128.60;1587.20;;;;;;5095389;28;20389;-61
2022/03/08 02:00:33;;;;;;;;;;;128.50;1612.80;;;;;;5098687;28;19915;-61
2022/03/08 02:02:59;;;;;;;;;;;128.50;1638.40;;;;;;5098403;28;19908;-61
2022/03/08 02:05:26;;;;;;;;;;;128.50;1612.80;;;;;;5097279;28;19923;-61
2022/03/08 02:07:51;;;;;;;;;;;128.40;1638.40;;;;;;5097957;28;19916;-61
2022/03/08 02:10:17;;;;;;;;;;;128.40;1612.80;;;;;;5097086;28;19915;-61
2022/03/08 02:12:42;;;;;;;;;;;128.40;1638.40;;;;;;5096720;28;20270;-61
2022/03/08 02:15:11;;;;;;;;;;;128.40;1638.40;;;;;;5097756;28;19962;-61
2022/03/08 02:17:36;;;;;;;;;;;128.40;1612.80;;;;;;5098112;28;20011;-61
2022/03/08 02:20:02;;;;;;;;;;;128.40;1664.00;;;;;;5098285;28;19951;-61
2022/03/08 02:22:28;;;;;;;;;;;128.40;1612.80;;;;;;5097827;28;19943;-64
2022/03/08 02:24:53;;;;;;;;;;;128.30;1638.40;;;;;;5097907;28;19908;-61
2022/03/08 02:27:19;;;;;;;;;;;128.50;1664.00;;;;;;5097875;28;19991;-61
2022/03/08 02:29:45;;;;;;;;;;;128.30;1638.40;;;;;;5097991;28;19953;-61
2022/03/08 02:32:11;;;;;;;;;;;128.30;1664.00;;;;;;5097811;28;20318;-61
2022/03/08 02:34:36;;;;;;;;;;;128.30;1612.80;;;;;;5097961;28;19908;-61
2022/03/08 02:37:05;;;;;;;;;;;128.40;1638.40;;;;;;5097697;28;20388;-61
2022/03/08 02:39:30;;;;;;;;;;;128.40;1638.40;;;;;;5097628;28;19919;-61
2022/03/08 02:41:56;;;;;;;;;;;128.20;1638.40;;;;;;5097703;28;20374;-61
2022/03/08 02:44:21;;;;;;;;;;;128.10;1664.00;;;;;;5097748;28;19912;-61
2022/03/08 02:46:47;;;;;;;;;;;128.10;1612.80;;;;;;5097823;28;19914;-61
2022/03/08 02:49:12;;;;;;;;;;;128.20;1638.40;;;;;;5097505;28;19915;-61
2022/03/08 02:51:38;;;;;;;;;;;128.20;1638.40;;;;;;5097727;28;19909;-61
2022/03/08 02:54:04;;;;;;;;;;;128.10;1664.00;;;;;;5097680;28;19919;-61
2022/03/08 02:56:30;;;;;;;;;;;128.20;1664.00;;;;;;5097256;28;20026;-61
2022/03/08 02:58:55;;;;;;;;;;;128.10;1638.40;;;;;;5097264;28;19923;-61
2022/03/08 03:01:21;;;;;;;;;;;128.20;1638.40;;;;;;5097207;28;19908;-61
2022/03/08 03:03:47;;;;;;;;;;;128.20;1612.80;;;;;;5097468;28;19991;-61
2022/03/08 03:06:12;;;;;;;;;;;128.20;1638.40;;;;;;5097252;28;20349;-61
2022/03/08 03:08:38;;;;;;;;;;;128.20;1638.40;;;;;;5096744;28;19927;-61
2022/03/08 03:11:03;;;;;;;;;;;128.20;1612.80;;;;;;5097224;28;19959;-61
2022/03/08 03:13:29;;;;;;;;;;;128.20;1638.40;;;;;;5096819;28;19908;-61
2022/03/08 03:15:54;;;;;;;;;;;128.20;1612.80;;;;;;5097240;28;19920;-61
2022/03/08 03:18:20;;;;;;;;;;;128.10;1638.40;;;;;;5096841;28;19908;-61
2022/03/08 03:20:46;;;;;;;;;;;128.20;1638.40;;;;;;5096816;28;20008;-61
2022/03/08 03:23:11;;;;;;;;;;;128.20;1612.80;;;;;;5097047;28;19908;-61
2022/03/08 03:25:37;;;;;;;;;;;128.20;1638.40;;;;;;5096732;28;20352;-60
2022/03/08 03:28:02;;;;;;;;;;;128.20;1587.20;;;;;;5096543;28;19908;-61
2022/03/08 03:30:28;;;;;;;;;;;128.10;1638.40;;;;;;5096209;28;19912;-61
2022/03/08 03:32:54;;;;;;;;;;;128.10;1638.40;;;;;;5096837;28;19912;-61
2022/03/08 03:35:19;;;;;;;;;;;128.00;1612.80;;;;;;5096713;28;20361;-61
2022/03/08 03:37:45;;;;;;;;;;;128.10;1638.40;;;;;;5096677;28;19938;-62
2022/03/08 03:40:11;;;;;;;;;;;103.30;1561.60;;;;;;5096247;28;19959;-62
2022/03/08 03:42:37;;;;;;;;;;;103.20;1612.80;;;;;;5096517;28;19908;-62
2022/03/08 03:45:03;;;;;;;;;;;103.30;1612.80;;;;;;5096505;28;19962;-61
2022/03/08 03:47:29;;;;;;;;;;;103.20;1612.80;;;;;;5096132;28;19915;-61
2022/03/08 03:49:55;;;;;;;;;;;103.20;1638.40;;;;;;5095061;28;19908;-61
2022/03/08 03:52:20;;;;;;;;;;;103.10;1587.20;;;;;;5096393;28;19908;-61
2022/03/08 03:54:46;;;;;;;;;;;103.10;1612.80;;;;;;5096265;28;19914;-61
2022/03/08 03:57:12;;;;;;;;;;;103.10;1612.80;;;;;;5096163;28;19938;-61
2022/03/08 03:59:38;;;;;;;;;;;103.00;1612.80;;;;;;5096228;28;20380;-61
2022/03/08 04:02:04;;;;;;;;;;;103.10;1638.40;;;;;;5095660;28;19908;-61
2022/03/08 04:04:29;;;;;;;;;;;103.10;1587.20;;;;;;5096156;28;19915;-61
2022/03/08 04:06:55;;;;;;;;;;;103.00;1638.40;;;;;;5095047;28;19908;-61
2022/03/08 04:09:20;;;;;;;;;;;103.10;1612.80;;;;;;5095848;28;19955;-61
2022/03/08 04:11:46;;;;;;;;;;;103.00;1612.80;;;;;;5096414;28;19962;-61
2022/03/08 04:14:12;;;;;;;;;;;103.00;1638.40;;;;;;5095948;28;19908;-61
2022/03/08 04:16:37;;;;;;;;;;;102.90;1612.80;;;;;;5096134;28;20388;-61
2022/03/08 04:19:03;;;;;;;;;;;102.90;1638.40;;;;;;5095971;28;19908;-61
2022/03/08 04:21:28;;;;;;;;;;;102.90;1612.80;;;;;;5095353;28;20410;-60
2022/03/08 04:23:54;;;;;;;;;;;102.80;1664.00;;;;;;5095712;28;19912;-61
2022/03/08 04:26:19;;;;;;;;;;;102.80;1689.60;;;;;;5095787;28;19908;-61
2022/03/08 04:28:45;;;;;;;;;;;102.70;1638.40;;;;;;5095432;28;19998;-60
2022/03/08 04:31:10;;;;;;;;;;;102.70;1664.00;;;;;;5095626;28;19908;-61
2022/03/08 04:33:36;;;;;;;;;;;102.80;1664.00;;;;;;5095444;28;19909;-61
2022/03/08 04:36:03;;;;;;;;;;;102.70;1664.00;;;;;;5095341;28;19924;-60
2022/03/08 04:38:28;;;;;;;;;;;102.70;1664.00;;;;;;5095503;28;19969;-61
2022/03/08 04:40:54;;;;;;;;;;;102.60;1664.00;;;;;;5094095;28;20349;-61
2022/03/08 04:43:19;;;;;;;;;;;102.70;1664.00;;;;;;5095487;28;19915;-61
2022/03/08 04:45:45;;;;;;;;;;;102.70;1664.00;;;;;;5095311;28;20421;-61
2022/03/08 04:48:11;;;;;;;;;;;102.60;1664.00;;;;;;5095201;28;19908;-61
2022/03/08 04:50:37;;;;;;;;;;;102.70;1689.60;;;;;;5095207;28;19908;-61
2022/03/08 04:53:03;;;;;;;;;;;102.70;1664.00;;;;;;5095004;28;19908;-61
2022/03/08 04:55:28;;;;;;;;;;;102.60;1689.60;;;;;;5095306;28;20011;-61
2022/03/08 04:57:54;;;;;;;;;;;102.50;1664.00;;;;;;5094924;28;20383;-61
2022/03/08 05:00:20;;;;;;;;;;;102.60;1689.60;;;;;;5095033;28;19914;-60
2022/03/08 05:02:45;;;;;;;;;;;102.60;1664.00;;;;;;5095017;28;19953;-61
2022/03/08 05:05:12;;;;;;;;;;;102.60;1664.00;;;;;;5095164;28;19908;-61
2022/03/08 05:07:38;;;;;;;;;;;102.60;1689.60;;;;;;5094888;28;20331;-61
2022/03/08 05:10:05;;;;;;;;;;;102.50;1638.40;;;;;;5095017;28;19908;-61
2022/03/08 05:12:30;;;;;;;;;;;102.50;1664.00;;;;;;5094896;28;19986;-63
2022/03/08 05:14:56;;;;;;;;;;;102.50;1664.00;;;;;;5094867;28;20265;-62
2022/03/08 05:17:22;;;;;;;;;;;102.50;1664.00;;;;;;5094555;28;19916;-61
2022/03/08 05:19:48;;;;;;;;;;;102.60;1689.60;;;;;;5094664;28;19908;-61
2022/03/08 05:22:13;;;;;;;;;;;102.60;1638.40;;;;;;5095124;28;19908;-61
2022/03/08 05:24:39;;;;;;;;;;;102.60;1664.00;;;;;;5094599;28;19916;-61
2022/03/08 05:27:05;;;;;;;;;;;102.60;1638.40;;;;;;5094620;28;19916;-61
2022/03/08 05:29:31;;;;;;;;;;;102.50;1664.00;;;;;;5094501;28;20369;-60
2022/03/08 05:31:57;;;;;;;;;;;102.60;1689.60;;;;;;5094622;28;19916;-61
2022/03/08 05:34:22;;;;;;;;;;;102.50;1664.00;;;;;;5093921;28;19908;-60
2022/03/08 05:36:48;;;;;;;;;;;102.60;1664.00;;;;;;5094307;28;19916;-61
2022/03/08 05:39:14;;;;;;;;;;;102.60;1638.40;;;;;;5094390;28;19977;-61
2022/03/08 05:41:39;;;;;;;;;;;102.50;1664.00;;;;;;5094528;28;19908;-61
2022/03/08 05:44:05;;;;;;;;;;;102.60;1689.60;;;;;;5094461;28;19916;-60
2022/03/08 05:46:30;;;;;;;;;;;102.50;1664.00;;;;;;5094742;28;19908;-60
2022/03/08 05:48:56;;;;;;;;;;;102.60;1664.00;;;;;;5094508;28;19915;-61
2022/03/08 05:51:21;;;;;;;;;;;102.60;1638.40;;;;;;5094134;28;19908;-61
2022/03/08 05:53:47;;;;;;;;;;;102.70;1638.40;;;;;;5094476;28;19962;-61
2022/03/08 05:56:12;;;;;;;;;;;102.70;1664.00;;;;;;5094255;28;19962;-62
2022/03/08 05:58:38;;;;;;;;;;;102.70;1638.40;;;;;;5094253;28;19952;-62
2022/03/08 06:01:04;;;;;;;;;;;102.70;1664.00;;;;;;5094252;28;19985;-61
2022/03/08 06:03:29;;;;;;;;;;;102.80;1638.40;;;;;;5094247;28;20258;-61
2022/03/08 06:05:55;;;;;;;;;;;102.80;1638.40;;;;;;5094299;28;19944;-61
2022/03/08 06:08:20;;;;;;;;;;;102.80;1664.00;;;;;;5093851;28;19972;-61
2022/03/08 06:10:46;;;;;;;;;;;102.80;1638.40;;;;;;5094062;28;19909;-61
2022/03/08 06:13:11;;;;;;;;;;;102.90;1664.00;;;;;;5094184;28;19915;-61
2022/03/08 06:15:37;;;;;;;;;;;102.90;1638.40;;;;;;5094296;28;19931;-61
2022/03/08 06:18:03;;;;;;;;;;;103.00;1638.40;;;;;;5094137;28;19927;-61
2022/03/08 06:20:28;;;;;;;;;;;103.00;1664.00;;;;;;5094108;28;19912;-61
2022/03/08 06:22:54;;;;;;;;;;;103.00;1638.40;;;;;;5094223;28;19908;-61
2022/03/08 06:25:20;;;;;;;;;;;103.10;1638.40;;;;;;5094125;28;19909;-61
2022/03/08 06:27:45;;;;;;;;;;;103.10;1612.80;;;;;;5093893;28;20410;-61
2022/03/08 06:30:11;;;;;;;;;;;103.10;1638.40;;;;;;5094120;28;19923;-61
2022/03/08 06:32:37;;;;;;;;;;;103.20;1612.80;;;;;;5093786;28;19912;-61
2022/03/08 06:35:03;;;;;;;;;;;103.10;1638.40;;;;;;5094015;28;19964;-61
2022/03/08 06:37:29;;;;;;;;;;;103.20;1664.00;;;;;;5093272;28;19995;-61
2022/03/08 06:39:54;;;;;;;;;;;103.20;1612.80;;;;;;5092561;28;19977;-61
2022/03/08 06:42:20;;;;;;;;;;;103.30;1638.40;;;;;;5093733;28;19914;-61
2022/03/08 06:44:46;;;;;;;;;;;103.20;1612.80;;;;;;5095980;28;19915;-61
2022/03/08 06:47:12;;;;;;;;;;;103.20;1638.40;;;;;;5097731;28;19908;-60
2022/03/08 06:49:38;;;;;;;;;;;103.30;1638.40;;;;;;5098024;28;19951;-60
2022/03/08 06:52:04;;;;;;;;;;;103.20;1612.80;;;;;;5097352;28;19915;-61
2022/03/08 06:54:30;;;;;;;;;;;103.30;1612.80;;;;;;5095983;28;20003;-60
2022/03/08 06:56:56;;;;;;;;;;;128.00;1638.40;;;;;;5097340;28;20020;-60
2022/03/08 06:59:21;;;;;;;;;;;128.00;1638.40;;;;;;5097399;28;19915;-60
2022/03/08 07:01:47;;;;;;;;;;;128.00;1664.00;;;;;;5097247;28;19908;-60
2022/03/08 07:04:12;;;;;;;;;;;128.00;1638.40;;;;;;5097026;28;19908;-62
2022/03/08 07:06:39;;;;;;;;;;;128.10;1664.00;;;;;;5096313;28;20341;-62
2022/03/08 07:09:04;;;;;;;;;;;128.00;1638.40;;;;;;5096938;28;19924;-62
2022/03/08 07:11:31;;;;;;;;;;;128.00;1664.00;;;;;;5099033;28;20282;-63
2022/03/08 07:13:56;;;;;;;;;;;128.20;1664.00;;;;;;5105532;28;19908;-62
2022/03/08 07:16:22;;;;;;;;;;;128.20;1638.40;;;;;;5099270;28;19972;-62
2022/03/08 07:18:48;;;;;;;;;;;128.30;1638.40;;;;;;5095418;28;19908;-62
2022/03/08 07:21:14;;;;;;;;;;;128.40;1638.40;;;;;;5095657;28;19912;-62
2022/03/08 07:23:39;;;;;;;;;;;128.40;1638.40;;;;;;5095589;28;19908;-62
2022/03/08 07:26:05;;;;;;;;;;;128.50;1664.00;;;;;;5095227;28;20269;-62
2022/03/08 07:28:31;;;;;;;;;;;128.50;1638.40;;;;;;5103707;28;19991;-62
2022/03/08 07:30:56;;;;;;;;;;;128.60;1638.40;;;;;;5106451;28;19920;-62
2022/03/08 07:33:22;;;;;;;;;;;128.60;1638.40;;;;;;5110848;28;20059;-63
2022/03/08 07:35:47;;;;;;;;;;;128.60;1664.00;;;;;;5116705;28;19907;-62
2022/03/08 07:38:13;;;;;;;;;;;128.60;1638.40;;;;;;5116855;28;19968;-62
2022/03/08 07:40:38;;;;;;;;;;;128.60;1664.00;;;;;;5116613;28;19912;-62
2022/03/08 07:43:04;;;;;;;;;;;128.70;1664.00;;;;;;5097744;28;19916;-63
2022/03/08 07:45:30;;;;;;;;;;;128.70;1638.40;;;;;;5096397;28;19908;-63
2022/03/08 07:47:56;;;;;;;;;;;128.80;1638.40;;;;;;5096772;28;19915;-62
2022/03/08 07:50:22;;;;;;;;;;;128.90;1638.40;;;;;;5098691;28;19912;-61
2022/03/08 07:52:48;;;;;;;;;;;153.60;1638.40;;;;;;5100477;28;19935;-62
2022/03/08 07:55:13;;;;;;;;;;;153.70;1664.00;;;;;;5092156;28;19908;-62
2022/03/08 07:57:39;;;;;;;;;;;153.80;1638.40;;;;;;5095487;28;19923;-62
2022/03/08 08:00:05;;;;;;;;;;;153.90;1664.00;;;;;;5095861;28;20006;-62
2022/03/08 08:02:31;;;;;;;;;;;154.00;1638.40;;;;;;5096167;28;19908;-63
2022/03/08 08:04:56;;;;;;;;;;;154.10;1638.40;;;;;;5096286;28;19991;-62
2022/03/08 08:07:22;;;;;;;;;;;154.20;1638.40;;;;;;5095814;28;19952;-63
2022/03/08 08:09:48;;;;;;;;;;;154.40;1638.40;;;;;;5096187;28;19908;-63
2022/03/08 08:12:13;;;;;;;;;;;154.50;1638.40;;;;;;5095796;28;20414;-62
2022/03/08 08:14:39;;;;;;;;;;;179.30;1612.80;;;;;;5095848;28;19908;-63
2022/03/08 08:17:05;;;;;;;;;;;179.40;1638.40;;;;;;5095799;28;20285;-63
2022/03/08 08:19:31;;;;;;;;;;;179.50;1638.40;;;;;;5095802;28;19915;-62
2022/03/08 08:21:56;;;;;;;;;;;179.60;1587.20;;;;;;5095794;28;19908;-62
2022/03/08 08:24:22;;;;;;;;;;;179.80;1612.80;;;;;;5096018;28;20750;-62
2022/03/08 08:26:50;;;;;;;;;;;179.80;1561.60;;;;;;5094919;28;20209;-63
2022/03/08 08:29:16;;;;;;;;;;;180.00;1587.20;;;;;;5095790;28;20019;-62
2022/03/08 08:31:41;;;;;;;;;;;180.10;1561.60;;;;;;5095773;28;19908;-63
2022/03/08 08:34:07;;;;;;;;;;;204.80;1510.40;;;;;;5095596;28;20265;-63
2022/03/08 08:36:32;;;;;;;;;;;204.90;1510.40;;;;;;5095391;28;19962;-62
2022/03/08 08:38:58;;;;;;;;;;;205.00;1484.80;;;;;;5095478;28;19944;-62
2022/03/08 08:41:23;;;;;;;;;;;205.00;1510.40;;;;;;5095607;28;19959;-62
2022/03/08 08:43:49;;;;;;;;;;;205.10;1536.00;;;;;;5095307;28;19915;-63
2022/03/08 08:46:15;;;;;;;;;;;205.20;1484.80;;;;;;5095608;28;19958;-62
2022/03/08 08:48:40;;;;;;;;;;;205.30;1510.40;;;;;;5095161;28;19972;-63
2022/03/08 08:51:06;;;;;;;;;;;205.30;1459.20;;;;;;5095152;28;20001;-63
2022/03/08 08:53:31;;;;;;;;;;;205.40;1484.80;;;;;;5095209;28;19908;-63
2022/03/08 08:55:57;;;;;;;;;;;205.60;1484.80;;;;;;5095706;28;19922;-62
2022/03/08 08:58:23;;;;;;;;;;;205.60;1459.20;;;;;;5094961;28;19920;-62
2022/03/08 09:00:48;;;;;;;;;;;205.60;1433.60;;;;;;5095105;28;19908;-63
2022/03/08 09:03:17;;;;;;;;;;;205.70;1408.00;;;;;;5095230;28;19908;-62
2022/03/08 09:05:43;;;;;;;;;;;230.40;1433.60;;;;;;5094738;28;19916;-63
2022/03/08 09:08:10;;;;;;;;;;;230.50;1408.00;;;;;;5094474;28;20015;-62
2022/03/08 09:10:35;;;;;;;;;;;230.50;1382.40;;;;;;5095040;28;19936;-62
2022/03/08 09:13:01;;;;;;;;;;;230.60;1382.40;;;;;;5093281;28;20028;-63
2022/03/08 09:15:27;;;;;;;;;;;230.60;1382.40;;;;;;5094953;28;20258;-62
2022/03/08 09:17:52;;;;;;;;;;;230.70;1356.80;;;;;;5076386;28;20328;-62
2022/03/08 09:20:18;;;;;;;;;;;230.70;1356.80;;;;;;5094810;28;19995;-63
2022/03/08 09:22:44;;;;;;;;;;;230.70;1331.20;;;;;;5095130;28;19908;-63
2022/03/08 09:25:09;;;;;;;;;;;230.70;1331.20;;;;;;5094583;28;19932;-63
2022/03/08 09:27:35;;;;;;;;;;;230.80;1305.60;;;;;;5094425;28;19990;-63
2022/03/08 09:30:04;;;;;;;;;;;230.80;1305.60;;;;;;5094195;28;19915;-63
2022/03/08 09:32:30;;;;;;;;;;;230.80;1305.60;;;;;;5094525;28;20350;-63
2022/03/08 09:34:56;;;;;;;;;;;230.80;1305.60;;;;;;5094282;28;19915;-63
2022/03/08 09:37:21;;;;;;;;;;;230.90;1280.00;;;;;;5094519;28;19916;-62
2022/03/08 09:39:47;;;;;;;;;;;230.90;1280.00;;;;;;5094144;28;19908;-63
2022/03/08 09:42:12;;;;;;;;;;;230.90;1254.40;;;;;;5093953;28;19912;-63
2022/03/08 09:44:38;;;;;;;;;;;230.90;1280.00;;;;;;5094378;28;20358;-63
2022/03/08 09:47:05;;;;;;;;;;;231.00;1254.40;;;;;;5094394;28;19912;-63
2022/03/08 09:49:31;;;;;;;;;;;231.00;1280.00;;;;;;5094242;28;19909;-63
2022/03/08 09:51:57;;;;;;;;;;;231.10;1254.40;;;;;;5094377;28;19942;-63
2022/03/08 09:54:23;;;;;;;;;;;231.20;1254.40;;;;;;5094226;28;19908;-63
2022/03/08 09:56:48;;;;;;;;;;;231.20;1254.40;;;;;;5094089;28;19951;-63
2022/03/08 09:59:18;;;;;;;;;;;231.30;1254.40;;;;;;5094376;28;19931;-62
2022/03/08 10:01:44;;;;;;;;;;;231.30;1254.40;;;;;;5094233;28;19908;-63
2022/03/08 10:04:10;;;;;;;;;;;231.30;1228.80;;;;;;5094490;28;19923;-63
2022/03/08 10:06:40;;;;;;;;;;;231.30;1228.80;;;;;;5094288;28;19912;-62
2022/03/08 10:09:09;;;;;;;;;;;231.30;1203.20;;;;;;5094073;28;19920;-63
2022/03/08 10:11:38;;;;;;;;;;;231.20;1203.20;;;;;;5094147;28;19912;-63
2022/03/08 10:14:04;;;;;;;;;;;231.20;1203.20;;;;;;5094102;28;20365;-63
2022/03/08 10:16:41;;;;;;;;;;;231.30;1203.20;;;;;;5093974;28;19916;-63
2022/03/08 10:19:08;;;;;;;;;;;231.30;1203.20;;;;;;5095422;28;19994;-62
2022/03/08 10:21:34;;;;;;;;;;;231.30;1203.20;;;;;;5098289;28;19954;-63
2022/03/08 10:24:02;;;;;;;;;;;231.30;1177.60;;;;;;5096765;28;19912;-63
2022/03/08 10:26:28;;;;;;;;;;;231.30;1177.60;;;;;;5096256;28;19914;-62
2022/03/08 10:28:54;;;;;;;;;;;231.30;1152.00;;;;;;5097951;28;20338;-63
2022/03/08 10:31:20;;;;;;;;;;;231.30;1177.60;;;;;;5098240;28;20258;-63
2022/03/08 10:33:47;;;;;;;;;;;231.30;1177.60;;;;;;5098076;28;19912;-63
2022/03/08 10:36:13;;;;;;;;;;;256.00;1152.00;;;;;;5096423;28;19912;-63
2022/03/08 10:39:01;;;;;;;;;;;256.00;1152.00;;;;;;5097848;28;19999;-63
2022/03/08 10:41:26;;;;;;;;;;;256.00;1177.60;;;;;;5097732;28;19908;-63
2022/03/08 10:43:52;;;;;;;;;;;256.00;1126.40;;;;;;5097703;28;20270;-63
2022/03/08 10:46:18;;;;;;;;;;;256.00;1152.00;;;;;;5096242;28;19956;-63
2022/03/08 10:48:45;;;;;;;;;;;256.00;1152.00;;;;;;5096363;28;19908;-63
2022/03/08 10:51:14;;;;;;;;;;;256.00;1152.00;;;;;;5096401;28;19909;-63
2022/03/08 10:53:40;;;;;;;;;;;231.30;1152.00;;;;;;5093451;28;19912;-63
2022/03/08 10:56:07;;;;;;;;;;;256.00;1152.00;;;;;;5095959;28;19919;-63
2022/03/08 10:58:33;;;;;;;;;;;231.30;1152.00;;;;;;5095898;28;19912;-63
2022/03/08 11:00:59;;;;;;;;;;;231.30;1152.00;;;;;;5096278;28;19919;-62
2022/03/08 11:03:25;;;;;;;;;;;231.30;1152.00;;;;;;5095949;28;19940;-62
2022/03/08 11:05:55;;;;;;;;;;;231.30;1126.40;;;;;;5095670;28;19940;-62
2022/03/08 11:08:22;;;;;;;;;;;256.00;1126.40;;;;;;5094085;28;19955;-63
2022/03/08 11:10:47;;;;;;;;;;;256.00;1126.40;;;;;;5096266;28;20003;-62
2022/03/08 11:13:14;;;;;;;;;;;256.10;1100.80;;;;;;5096626;28;19958;-63
2022/03/08 11:15:40;;;;;;;;;;;256.30;1126.40;;;;;;5096590;28;19912;-63
2022/03/08 11:18:08;;;;;;;;;;;256.30;1126.40;;;;;;5096488;28;19920;-62
2022/03/08 11:20:34;;;;;;;;;;;256.40;1126.40;;;;;;5096730;28;20273;-63
2022/03/08 11:23:00;;;;;;;;;;;256.40;1100.80;;;;;;5096134;28;19995;-61
2022/03/08 11:25:30;;;;;;;;;;;256.40;1126.40;;;;;;5096476;28;19963;-63
2022/03/08 11:28:09;;;;;;;;;;;256.40;1126.40;;;;;;5096429;28;19973;-62
2022/03/08 11:30:39;;;;;;;;;;;256.30;1126.40;;;;;;5095104;28;19915;-61
2022/03/08 11:33:05;;;;;;;;;;;256.30;1126.40;;;;;;5093939;28;19924;-62
2022/03/08 11:35:36;;;;;;;;;;;256.30;1126.40;;;;;;5095959;28;20268;-62
2022/03/08 12:02:30;;;;;;;;;;;256.00;1100.80;;;;;;5237681;22;20376;-58
2022/03/08 12:04:58;;;;;;;;;;;256.00;1100.80;;;;;;5034885;28;20004;-57
2022/03/08 12:07:26;;;;;;;;;;;256.10;1100.80;;;;;;5033042;28;20329;-59
2022/03/08 12:10:11;;;;;;;;;;;256.00;1075.20;;;;;;5035826;28;20285;-58
2022/03/08 12:12:41;;;;;;;;;;;256.00;1075.20;;;;;;5035973;28;19909;-57
2022/03/08 12:15:06;;;;;;;;;;;256.00;1126.40;;;;;;5035716;28;20361;-58
2022/03/08 12:17:32;;;;;;;;;;;256.00;1177.60;;;;;;5033352;28;19921;-57
2022/03/08 12:20:12;;;;;;;;;;;256.00;1203.20;;;;;;5035175;28;19909;-58
2022/03/08 12:22:37;;;;;;;;;;;231.30;1203.20;;;;;;5033376;28;19988;-57
2022/03/08 12:25:12;;;;;;;;;;;231.30;1228.80;;;;;;5035138;28;19940;-57
2022/03/08 12:27:48;;;;;;;;;;;231.30;1228.80;;;;;;5033473;28;19909;-58
2022/03/08 12:30:14;;;;;;;;;;;231.30;1228.80;;;;;;5032727;28;19916;-59
2022/03/08 12:32:42;;;;;;;;;;;256.00;1228.80;;;;;;5035063;28;19909;-59
2022/03/08 12:35:19;;;;;;;;;;;256.00;1203.20;;;;;;5034818;28;20377;-56
2022/03/08 12:37:48;;;;;;;;;;;256.00;1203.20;;;;;;5034815;28;20379;-58
2022/03/08 12:40:15;;;;;;;;;;;256.00;1203.20;;;;;;5032386;28;19909;-58
2022/03/08 12:42:41;;;;;;;;;;;256.00;1203.20;;;;;;5034328;28;20008;-58
2022/03/08 12:45:39;;;;;;;;;;;231.30;1203.20;;;;;;5035098;28;19952;-58
2022/03/08 12:48:06;;;;;;;;;;;231.30;1203.20;;;;;;4992977;28;19909;-57
2022/03/08 12:50:33;;;;;;;;;;;231.30;1203.20;;;;;;4993261;28;19910;-56
2022/03/08 12:53:04;;;;;;;;;;;231.30;1228.80;;;;;;4993672;28;20367;-59
2022/03/08 12:55:32;;;;;;;;;;;231.20;1228.80;;;;;;4993609;28;20311;-58
2022/03/08 12:58:00;;;;;;;;;;;231.20;1228.80;;;;;;4993964;28;19926;-59
2022/03/08 13:00:38;;;;;;;;;;;231.20;1228.80;;;;;;4993645;28;20403;-58
2022/03/08 13:03:06;;;;;;;;;;;231.20;1203.20;;;;;;4993314;28;20342;-58
2022/03/08 13:05:33;;;;;;;;;;;231.20;1203.20;;;;;;4993434;28;20479;-58
2022/03/08 13:07:59;;;;;;;;;;;231.30;1177.60;;;;;;4993511;28;19969;-59
2022/03/08 13:10:25;;;;;;;;;;;231.30;1177.60;;;;;;4993667;28;20295;-61
2022/03/08 13:12:52;;;;;;;;;;;231.30;1177.60;;;;;;4977173;28;19910;-60
2022/03/08 13:15:19;;;;;;;;;;;231.30;1203.20;;;;;;4993456;28;19954;-57
2022/03/08 13:17:46;;;;;;;;;;;231.30;1177.60;;;;;;4993182;28;19925;-59
2022/03/08 13:20:31;;;;;;;;;;;231.30;1203.20;;;;;;4993336;28;19926;-58
2022/03/08 13:22:59;;;;;;;;;;;231.30;1203.20;;;;;;4997812;28;20386;-59
2022/03/08 13:25:25;;;;;;;;;;;231.30;1228.80;;;;;;5014814;28;20379;-59
2022/03/08 13:28:11;;;;;;;;;;;231.30;1228.80;;;;;;5014938;28;19916;-58
2022/03/08 13:30:41;;;;;;;;;;;231.30;1228.80;;;;;;5014551;28;19936;-58
2022/03/08 13:33:09;;;;;;;;;;;231.30;1228.80;;;;;;5014651;28;20012;-58
2022/03/08 13:35:39;;;;;;;;;;;231.30;1228.80;;;;;;5014711;28;19936;-59
2022/03/08 13:38:05;;;;;;;;;;;231.30;1203.20;;;;;;5014947;28;20358;-58
2022/03/08 13:40:32;;;;;;;;;;;231.30;1203.20;;;;;;5014682;28;20321;-58
2022/03/08 13:42:59;;;;;;;;;;;231.30;1177.60;;;;;;5014554;28;20381;-59
2022/03/08 13:45:25;;;;;;;;;;;231.30;1177.60;;;;;;5014857;28;19916;-58
2022/03/08 13:47:55;;;;;;;;;;;231.30;1177.60;;;;;;5014424;28;20004;-60
2022/03/08 13:50:24;;;;;;;;;;;231.30;1177.60;;;;;;5014563;28;19988;-59
2022/03/08 13:52:50;;;;;;;;;;;231.30;1152.00;;;;;;5014255;28;19917;-57
2022/03/08 13:55:16;;;;;;;;;;;231.30;1177.60;;;;;;5013881;28;19909;-58
2022/03/08 13:58:01;;;;;;;;;;;231.30;1177.60;;;;;;5014718;28;20016;-59
2022/03/08 14:00:30;;;;;;;;;;;231.30;1177.60;;;;;;5014746;28;19910;-57
2022/03/08 14:02:59;;;;;;;;;;;231.30;1152.00;;;;;;5014393;28;19922;-57